createdAt,value
2018-04-15T00:02:20.657Z,10.40
2018-04-15T00:04:48.428Z,10.30
2018-04-15T00:07:16.167Z,10.30
2018-04-15T00:09:43.884Z,10.30
2018-04-15T00:12:11.658Z,10.30
2018-04-15T00:14:39.849Z,10.30
2018-04-15T00:17:07.619Z,10.40
2018-04-15T00:19:36.142Z,10.50
2018-04-15T00:22:03.957Z,10.60
2018-04-15T00:24:32.414Z,10.60
2018-04-15T00:27:00.430Z,10.70
2018-04-15T00:29:28.250Z,10.70
2018-04-15T00:31:56.870Z,10.30
2018-04-15T00:34:24.581Z,10.80
2018-04-15T00:36:52.316Z,10.90
2018-04-15T00:39:20.112Z,10.90
2018-04-15T00:41:47.820Z,10.90
2018-04-15T00:44:15.666Z,11.00
2018-04-15T00:46:45.018Z,11.10
2018-04-15T00:49:12.911Z,11.10
2018-04-15T00:51:40.631Z,11.00
2018-04-15T00:54:17.302Z,11.00
2018-04-15T00:56:45.056Z,11.10
2018-04-15T00:59:12.730Z,11.10
2018-04-15T01:01:40.901Z,11.10
2018-04-15T01:04:08.619Z,11.10
2018-04-15T01:06:36.278Z,11.10
2018-04-15T01:09:06.283Z,11.00
2018-04-15T01:11:33.941Z,11.10
2018-04-15T01:14:01.598Z,11.10
2018-04-15T01:16:29.777Z,11.10
2018-04-15T01:18:58.154Z,11.10
2018-04-15T01:21:25.906Z,11.00
2018-04-15T01:23:53.704Z,11.00
2018-04-15T01:26:21.639Z,11.00
2018-04-15T01:28:49.396Z,11.00
2018-04-15T01:31:17.132Z,11.00
2018-04-15T01:33:44.993Z,10.90
2018-04-15T01:36:12.741Z,10.80
2018-04-15T01:38:40.465Z,10.90
2018-04-15T01:41:08.195Z,10.80
2018-04-15T01:43:37.388Z,10.80
2018-04-15T01:46:06.733Z,10.80
2018-04-15T01:48:35.173Z,10.80
2018-04-15T01:51:02.821Z,10.80
2018-04-15T01:53:30.536Z,10.80
2018-04-15T01:55:58.963Z,10.70
2018-04-15T01:58:26.622Z,10.80
2018-04-15T02:00:56.108Z,10.70
2018-04-15T02:03:23.806Z,10.70
2018-04-15T02:05:51.471Z,10.70
2018-04-15T02:08:20.771Z,10.70
2018-04-15T02:10:48.987Z,10.70
2018-04-15T02:13:18.072Z,10.70
2018-04-15T02:15:47.026Z,10.70
2018-04-15T02:18:15.323Z,10.60
2018-04-15T02:20:43.289Z,10.60
2018-04-15T02:23:12.120Z,10.60
2018-04-15T02:25:41.394Z,10.50
2018-04-15T02:28:09.086Z,10.50
2018-04-15T02:30:37.492Z,10.50
2018-04-15T02:33:05.820Z,10.40
2018-04-15T02:35:33.919Z,10.40
2018-04-15T02:38:01.593Z,10.40
2018-04-15T02:40:29.559Z,10.40
2018-04-15T02:42:59.548Z,10.40
2018-04-15T02:45:29.604Z,10.30
2018-04-15T02:47:58.132Z,10.30
2018-04-15T02:50:25.966Z,10.30
2018-04-15T02:52:55.304Z,10.30
2018-04-15T02:55:23.192Z,10.30
2018-04-15T02:57:51.475Z,10.30
2018-04-15T03:00:19.293Z,10.30
2018-04-15T03:02:47.582Z,10.30
2018-04-15T03:05:15.502Z,10.30
2018-04-15T03:07:44.486Z,10.20
2018-04-15T03:10:12.487Z,10.20
2018-04-15T03:12:41.552Z,10.10
2018-04-15T03:15:09.644Z,10.10
2018-04-15T03:17:38.592Z,10.10
2018-04-15T03:20:07.719Z,10.10
2018-04-15T03:22:36.964Z,10.10
2018-04-15T03:25:04.799Z,10.20
2018-04-15T03:27:32.816Z,10.20
2018-04-15T03:30:00.489Z,10.30
2018-04-15T03:32:28.610Z,10.30
2018-04-15T03:34:56.499Z,10.40
2018-04-15T03:37:24.357Z,10.40
2018-04-15T03:39:53.256Z,10.40
2018-04-15T03:42:22.820Z,10.30
2018-04-15T03:44:51.012Z,10.30
2018-04-15T03:47:22.596Z,10.20
2018-04-15T03:49:51.622Z,10.20
2018-04-15T03:52:19.909Z,10.10
2018-04-15T03:54:48.325Z,9.90
2018-04-15T03:57:16.036Z,9.90
2018-04-15T03:59:43.729Z,9.90
2018-04-15T04:02:11.429Z,9.80
2018-04-15T04:04:39.873Z,9.80
2018-04-15T04:07:08.414Z,9.80
2018-04-15T04:09:36.079Z,9.80
2018-04-15T04:12:04.245Z,9.80
2018-04-15T04:14:32.017Z,9.90
2018-04-15T04:16:59.672Z,9.90
2018-04-15T04:22:44.921Z,10.00
2018-04-15T04:25:24.257Z,10.00
2018-04-15T04:27:53.091Z,10.00
2018-04-15T04:30:20.752Z,9.90
2018-04-15T04:32:48.753Z,10.00
2018-04-15T04:35:16.445Z,10.00
2018-04-15T04:37:44.105Z,10.00
2018-04-15T04:40:11.773Z,10.00
2018-04-15T04:42:39.495Z,10.00
2018-04-15T04:45:07.325Z,10.00
2018-04-15T04:47:35.808Z,10.00
2018-04-15T04:50:04.289Z,10.00
2018-04-15T04:52:32.760Z,10.00
2018-04-15T04:55:00.445Z,10.00
2018-04-15T04:57:29.396Z,10.00
2018-04-15T04:59:57.077Z,10.00
2018-04-15T05:02:24.806Z,10.00
2018-04-15T05:04:52.467Z,10.00
2018-04-15T05:07:21.055Z,10.00
2018-04-15T05:09:48.689Z,10.10
2018-04-15T05:12:17.865Z,10.10
2018-04-15T05:14:45.552Z,10.10
2018-04-15T05:17:13.217Z,10.10
2018-04-15T05:19:41.685Z,10.10
2018-04-15T05:22:09.334Z,10.10
2018-04-15T05:24:38.706Z,10.10
2018-04-15T05:27:06.359Z,10.10
2018-04-15T05:29:34.022Z,10.10
2018-04-15T05:32:02.569Z,10.10
2018-04-15T05:34:30.229Z,10.20
2018-04-15T05:36:57.919Z,10.20
2018-04-15T05:39:25.608Z,10.20
2018-04-15T05:41:53.266Z,10.20
2018-04-15T05:44:20.954Z,10.20
2018-04-15T05:46:48.652Z,10.20
2018-04-15T05:49:17.466Z,10.30
2018-04-15T05:51:45.188Z,10.20
2018-04-15T05:54:12.847Z,10.30
2018-04-15T05:56:41.181Z,10.30
2018-04-15T05:59:09.614Z,10.30
2018-04-15T06:01:37.376Z,10.30
2018-04-15T06:04:05.051Z,10.30
2018-04-15T06:06:32.734Z,10.30
2018-04-15T06:09:00.468Z,10.30
2018-04-15T06:11:28.152Z,10.30
2018-04-15T06:13:55.825Z,10.30
2018-04-15T06:16:23.532Z,10.30
2018-04-15T06:18:51.191Z,10.30
2018-04-15T06:21:18.887Z,10.30
2018-04-15T06:23:46.925Z,10.20
2018-04-15T06:26:16.004Z,10.30
2018-04-15T06:28:45.185Z,10.20
2018-04-15T06:31:12.846Z,10.20
2018-04-15T06:33:41.035Z,10.30
2018-04-15T06:36:08.688Z,10.30
2018-04-15T06:38:36.566Z,10.30
2018-04-15T06:41:04.277Z,10.40
2018-04-15T06:43:31.954Z,10.40
2018-04-15T06:45:59.655Z,10.40
2018-04-15T06:48:27.323Z,10.50
2018-04-15T06:50:55.009Z,10.60
2018-04-15T06:53:22.686Z,10.70
2018-04-15T06:55:51.128Z,10.70
2018-04-15T06:58:18.795Z,10.70
2018-04-15T07:00:46.908Z,10.80
2018-04-15T07:03:14.568Z,10.70
2018-04-15T07:05:43.018Z,10.80
2018-04-15T07:08:10.661Z,10.80
2018-04-15T07:10:38.338Z,10.80
2018-04-15T07:13:06.000Z,10.80
2018-04-15T07:15:33.668Z,10.90
2018-04-15T07:18:01.389Z,10.90
2018-04-15T07:20:29.077Z,10.90
2018-04-15T07:22:56.785Z,10.90
2018-04-15T07:25:24.480Z,10.80
2018-04-15T07:27:52.885Z,10.80
2018-04-15T07:30:21.725Z,10.80
2018-04-15T07:32:49.368Z,10.80
2018-04-15T07:35:17.017Z,10.80
2018-04-15T07:37:45.757Z,10.80
2018-04-15T07:40:14.669Z,10.80
2018-04-15T07:42:42.323Z,10.80
2018-04-15T07:45:11.094Z,10.80
2018-04-15T07:47:38.863Z,10.80
2018-04-15T07:50:06.910Z,10.80
2018-04-15T07:52:36.306Z,10.90
2018-04-15T07:55:04.144Z,10.90
2018-04-15T07:57:34.888Z,10.90
2018-04-15T08:00:02.644Z,10.90
2018-04-15T08:02:31.428Z,11.00
2018-04-15T08:04:59.969Z,11.00
2018-04-15T08:07:28.400Z,11.00
2018-04-15T08:09:57.142Z,11.00
2018-04-15T08:12:24.950Z,11.10
2018-04-15T08:14:52.641Z,11.10
2018-04-15T08:17:20.348Z,11.10
2018-04-15T08:19:47.988Z,11.20
2018-04-15T08:22:15.747Z,11.20
2018-04-15T08:24:44.444Z,11.30
2018-04-15T08:27:13.160Z,11.40
2018-04-15T08:29:42.596Z,11.50
2018-04-15T08:32:13.298Z,11.50
2018-04-15T08:34:42.556Z,11.50
2018-04-15T08:37:10.804Z,11.50
2018-04-15T08:39:39.377Z,11.50
2018-04-15T08:42:07.077Z,11.50
2018-04-15T08:44:36.570Z,11.70
2018-04-15T08:47:05.012Z,11.80
2018-04-15T08:49:32.664Z,11.80
2018-04-15T08:52:00.393Z,11.90
2018-04-15T08:54:28.170Z,12.00
2018-04-15T08:56:55.886Z,12.00
2018-04-15T08:59:23.584Z,12.00
2018-04-15T09:01:52.735Z,12.00
2018-04-15T09:04:20.448Z,11.90
2018-04-15T09:06:50.052Z,12.00
2018-04-15T09:09:18.547Z,11.90
2018-04-15T09:11:46.200Z,12.00
2018-04-15T09:14:14.697Z,12.00
2018-04-15T09:16:42.417Z,12.00
2018-04-15T09:19:11.126Z,12.00
2018-04-15T09:21:38.816Z,12.10
2018-04-15T09:24:07.272Z,12.10
2018-04-15T09:26:34.920Z,12.10
2018-04-15T09:29:02.568Z,12.20
2018-04-15T09:31:30.264Z,12.20
2018-04-15T09:33:58.274Z,12.30
2018-04-15T09:36:25.957Z,12.50
2018-04-15T09:38:53.644Z,12.50
2018-04-15T09:41:21.912Z,12.60
2018-04-15T09:43:50.150Z,12.60
2018-04-15T09:46:17.871Z,12.70
2018-04-15T09:48:46.688Z,12.80
2018-04-15T09:51:14.408Z,12.90
2018-04-15T09:53:42.151Z,13.00
2018-04-15T09:56:09.822Z,13.10
2018-04-15T09:58:37.542Z,13.10
2018-04-15T10:01:05.199Z,13.10
2018-04-15T10:03:33.387Z,13.00
2018-04-15T10:06:01.128Z,13.00
2018-04-15T10:08:28.799Z,13.00
2018-04-15T10:10:56.669Z,13.10
2018-04-15T10:13:24.343Z,13.20
2018-04-15T10:15:51.993Z,13.30
2018-04-15T10:18:20.265Z,13.20
2018-04-15T10:20:47.955Z,13.20
2018-04-15T10:23:15.653Z,13.20
2018-04-15T10:25:43.707Z,13.30
2018-04-15T10:28:11.382Z,13.40
2018-04-15T10:30:40.665Z,13.50
2018-04-15T10:33:08.598Z,13.50
2018-04-15T10:35:36.382Z,13.50
2018-04-15T10:38:04.464Z,13.50
2018-04-15T10:40:32.465Z,13.50
2018-04-15T10:43:00.141Z,13.50
2018-04-15T10:45:27.900Z,13.50
2018-04-15T10:47:55.812Z,13.50
2018-04-15T10:50:23.496Z,13.50
2018-04-15T10:52:51.157Z,13.60
2018-04-15T10:55:18.870Z,13.60
2018-04-15T10:57:46.501Z,13.60
2018-04-15T11:00:14.196Z,13.60
2018-04-15T11:02:42.844Z,13.60
2018-04-15T11:05:10.507Z,13.60
2018-04-15T11:07:38.144Z,13.60
2018-04-15T11:10:05.827Z,13.80
2018-04-15T11:12:33.824Z,14.10
2018-04-15T11:15:01.491Z,14.10
2018-04-15T11:17:30.396Z,14.10
2018-04-15T11:19:59.112Z,14.00
2018-04-15T11:22:27.026Z,13.90
2018-04-15T11:24:54.886Z,13.90
2018-04-15T11:27:22.856Z,13.70
2018-04-15T11:29:50.521Z,13.60
2018-04-15T11:32:18.184Z,13.40
2018-04-15T11:34:46.498Z,13.30
2018-04-15T11:37:14.809Z,13.20
2018-04-15T11:39:44.224Z,13.40
2018-04-15T11:42:12.446Z,13.40
2018-04-15T11:44:40.188Z,13.70
2018-04-15T11:47:07.881Z,13.90
2018-04-15T11:49:35.759Z,14.00
2018-04-15T11:52:03.560Z,14.20
2018-04-15T11:54:31.779Z,14.30
2018-04-15T11:56:59.443Z,14.40
2018-04-15T11:59:27.124Z,14.20
2018-04-15T12:01:55.837Z,14.20
2018-04-15T12:04:23.509Z,14.10
2018-04-15T12:06:52.690Z,13.80
2018-04-15T12:09:24.981Z,13.80
2018-04-15T12:11:53.069Z,13.60
2018-04-15T12:14:20.729Z,13.30
2018-04-15T12:16:49.864Z,13.20
2018-04-15T12:19:18.276Z,13.10
2018-04-15T12:21:45.976Z,13.10
2018-04-15T12:24:15.195Z,13.30
2018-04-15T12:26:43.151Z,13.40
2018-04-15T12:29:11.619Z,13.40
2018-04-15T12:31:39.686Z,13.40
2018-04-15T12:34:07.403Z,13.30
2018-04-15T12:36:36.234Z,13.30
2018-04-15T12:39:05.457Z,13.20
2018-04-15T12:41:34.417Z,13.10
2018-04-15T12:44:03.094Z,13.00
2018-04-15T12:46:31.515Z,12.70
2018-04-15T12:49:00.206Z,12.70
2018-04-15T12:51:27.948Z,12.60
2018-04-15T12:53:55.848Z,12.70
2018-04-15T12:56:23.491Z,12.60
2018-04-15T12:58:51.260Z,12.60
2018-04-15T13:01:18.974Z,12.60
2018-04-15T13:03:47.484Z,12.80
2018-04-15T13:06:15.167Z,12.80
2018-04-15T13:08:42.946Z,12.70
2018-04-15T13:11:11.012Z,12.70
2018-04-15T13:13:38.697Z,12.70
2018-04-15T13:16:06.942Z,12.80
2018-04-15T13:18:35.624Z,12.90
2018-04-15T13:21:03.341Z,12.90
2018-04-15T13:23:31.496Z,13.00
2018-04-15T13:25:59.194Z,13.10
2018-04-15T13:28:27.638Z,13.10
2018-04-15T13:30:55.325Z,13.10
2018-04-15T13:33:23.012Z,13.10
2018-04-15T13:35:52.078Z,13.10
2018-04-15T13:38:20.864Z,13.30
2018-04-15T13:40:48.530Z,13.60
2018-04-15T13:43:16.227Z,14.00
2018-04-15T13:45:44.077Z,14.30
2018-04-15T13:48:11.829Z,14.80
2018-04-15T13:50:42.567Z,15.10
2018-04-15T13:53:10.931Z,15.50
2018-04-15T13:55:38.598Z,15.60
2018-04-15T13:58:06.309Z,15.60
2018-04-15T14:00:33.981Z,15.70
2018-04-15T14:03:03.425Z,15.50
2018-04-15T14:05:32.161Z,15.50
2018-04-15T14:08:02.137Z,15.80
2018-04-15T14:10:29.788Z,15.70
2018-04-15T14:12:57.997Z,15.80
2018-04-15T14:15:26.400Z,15.80
2018-04-15T14:17:54.149Z,15.70
2018-04-15T14:20:21.808Z,15.40
2018-04-15T14:22:49.855Z,15.20
2018-04-15T14:25:17.599Z,14.90
2018-04-15T14:27:45.252Z,14.50
2018-04-15T14:30:14.351Z,13.80
2018-04-15T14:32:43.006Z,13.80
2018-04-15T14:35:11.521Z,13.40
2018-04-15T14:37:39.174Z,13.40
2018-04-15T14:40:06.876Z,13.30
2018-04-15T14:42:34.540Z,13.20
2018-04-15T14:45:02.209Z,13.60
2018-04-15T14:47:29.947Z,13.70
2018-04-15T14:49:58.675Z,13.50
2018-04-15T14:52:27.679Z,13.50
2018-04-15T14:54:55.336Z,13.40
2018-04-15T14:57:24.073Z,13.30
2018-04-15T14:59:53.274Z,13.10
2018-04-15T15:02:20.998Z,13.10
2018-04-15T15:04:49.073Z,13.10
2018-04-15T15:07:16.760Z,13.70
2018-04-15T15:09:44.813Z,15.20
2018-04-15T15:12:12.489Z,17.00
2018-04-15T15:14:40.150Z,18.40
2018-04-15T15:17:08.657Z,19.30
2018-04-15T15:19:36.356Z,20.00
2018-04-15T15:22:04.793Z,20.10
2018-04-15T15:24:32.848Z,20.10
2018-04-15T15:27:00.588Z,19.20
2018-04-15T15:29:28.917Z,18.40
2018-04-15T15:31:56.779Z,18.20
2018-04-15T15:34:24.733Z,18.60
2018-04-15T15:36:52.407Z,19.20
2018-04-15T15:39:20.183Z,19.40
2018-04-15T15:41:49.685Z,17.90
2018-04-15T15:44:17.344Z,17.90
2018-04-15T15:46:45.005Z,17.50
2018-04-15T15:49:13.183Z,17.40
2018-04-15T15:51:40.848Z,17.10
2018-04-15T15:54:08.577Z,17.00
2018-04-15T15:56:37.008Z,19.00
2018-04-15T15:59:04.720Z,18.90
2018-04-15T16:01:32.410Z,20.00
2018-04-15T16:04:00.109Z,20.50
2018-04-15T16:06:27.853Z,20.50
2018-04-15T16:08:55.509Z,19.70
2018-04-15T16:11:23.238Z,19.30
2018-04-15T16:13:50.914Z,18.90
2018-04-15T16:16:18.616Z,18.30
2018-04-15T16:18:46.278Z,18.00
2018-04-15T16:21:13.945Z,18.40
2018-04-15T16:23:41.665Z,19.50
2018-04-15T16:26:09.432Z,19.70
2018-04-15T16:28:37.110Z,19.50
2018-04-15T16:31:05.566Z,19.10
2018-04-15T16:33:33.257Z,19.10
2018-04-15T16:36:02.522Z,19.10
2018-04-15T16:38:30.191Z,19.10
2018-04-15T16:40:58.946Z,19.20
2018-04-15T16:43:28.420Z,18.50
2018-04-15T16:45:56.343Z,18.20
2018-04-15T16:48:24.051Z,17.90
2018-04-15T16:50:52.531Z,17.00
2018-04-15T16:53:20.937Z,16.60
2018-04-15T16:55:48.598Z,16.60
2018-04-15T16:58:17.641Z,16.20
2018-04-15T17:00:45.331Z,16.10
2018-04-15T17:03:12.982Z,15.90
2018-04-15T17:05:40.683Z,15.70
2018-04-15T17:08:09.089Z,14.80
2018-04-15T17:10:37.180Z,14.80
2018-04-15T17:13:04.842Z,14.50
2018-04-15T17:15:32.544Z,14.20
2018-04-15T17:18:00.596Z,14.00
2018-04-15T17:20:28.255Z,13.90
2018-04-15T17:22:55.946Z,14.00
2018-04-15T17:25:23.738Z,13.90
2018-04-15T17:27:52.180Z,13.80
2018-04-15T17:30:19.879Z,13.70
2018-04-15T17:32:47.585Z,13.70
2018-04-15T17:35:15.281Z,13.60
2018-04-15T17:37:43.032Z,13.50
2018-04-15T17:40:10.760Z,13.50
2018-04-15T17:42:38.467Z,13.40
2018-04-15T17:45:06.628Z,13.40
2018-04-15T17:47:34.288Z,13.40
2018-04-15T17:50:01.953Z,13.50
2018-04-15T17:52:29.682Z,13.70
2018-04-15T17:54:57.352Z,13.80
2018-04-15T17:57:25.078Z,13.70
2018-04-15T17:59:52.766Z,13.60
2018-04-15T18:02:22.375Z,13.40
2018-04-15T18:04:50.060Z,13.10
2018-04-15T18:07:18.520Z,12.90
2018-04-15T18:09:46.420Z,12.90
2018-04-15T18:12:14.857Z,12.80
2018-04-15T18:14:42.529Z,12.70
2018-04-15T18:17:10.977Z,12.60
2018-04-15T18:19:38.864Z,12.60
2018-04-15T18:22:06.985Z,12.50
2018-04-15T18:24:37.317Z,12.50
2018-04-15T18:27:06.076Z,12.40
2018-04-15T18:29:33.850Z,12.40
2018-04-15T18:32:02.616Z,12.30
2018-04-15T18:34:30.244Z,12.30
2018-04-15T18:36:59.657Z,12.20
2018-04-15T18:39:28.209Z,12.20
2018-04-15T18:41:55.894Z,12.20
2018-04-15T18:44:24.313Z,12.10
2018-04-15T18:46:52.935Z,12.10
2018-04-15T18:49:21.797Z,12.10
2018-04-15T18:51:50.189Z,12.10
2018-04-15T18:54:18.429Z,12.00
2018-04-15T18:56:47.545Z,12.00
2018-04-15T18:59:16.082Z,11.90
2018-04-15T19:01:44.326Z,11.90
2018-04-15T19:04:11.996Z,11.80
2018-04-15T19:06:39.659Z,11.80
2018-04-15T19:09:07.393Z,11.70
2018-04-15T19:11:35.057Z,11.70
2018-04-15T19:14:02.895Z,11.70
2018-04-15T19:16:30.603Z,11.60
2018-04-15T19:18:58.414Z,11.60
2018-04-15T19:21:26.498Z,11.60
2018-04-15T19:23:54.158Z,11.60
2018-04-15T19:26:21.821Z,11.50
2018-04-15T19:28:49.711Z,11.50
2018-04-15T19:31:17.400Z,11.50
2018-04-15T19:33:45.092Z,11.40
2018-04-15T19:36:12.813Z,11.30
2018-04-15T19:38:41.264Z,11.30
2018-04-15T19:41:08.953Z,11.30
2018-04-15T19:43:37.438Z,11.30
2018-04-15T19:46:06.193Z,11.30
2018-04-15T19:48:34.194Z,11.30
2018-04-15T19:51:01.889Z,11.30
2018-04-15T19:53:29.990Z,11.30
2018-04-15T19:55:58.691Z,11.30
2018-04-15T19:58:26.388Z,11.30
2018-04-15T20:00:54.068Z,11.30
2018-04-15T20:03:22.287Z,11.30
2018-04-15T20:05:50.010Z,11.30
2018-04-15T20:08:17.706Z,11.20
2018-04-15T20:10:45.393Z,11.20
2018-04-15T20:13:13.056Z,11.20
2018-04-15T20:15:40.740Z,11.20
2018-04-15T20:18:08.473Z,11.10
2018-04-15T20:20:36.226Z,11.10
2018-04-15T20:23:03.936Z,11.10
2018-04-15T20:25:31.617Z,11.00
2018-04-15T20:27:59.389Z,11.00
2018-04-15T20:30:27.073Z,11.00
2018-04-15T20:32:57.449Z,10.90
2018-04-15T20:35:28.462Z,10.90
2018-04-15T20:37:58.386Z,10.90
2018-04-15T20:40:26.812Z,10.90
2018-04-15T20:42:56.634Z,10.90
2018-04-15T20:45:25.140Z,10.80
2018-04-15T20:47:55.211Z,10.70
2018-04-15T20:50:24.052Z,10.70
2018-04-15T20:52:51.855Z,10.70
2018-04-15T20:55:20.995Z,10.70
2018-04-15T20:57:49.185Z,10.70
2018-04-15T21:00:17.892Z,10.70
2018-04-15T21:02:46.346Z,10.70
2018-04-15T21:05:15.109Z,10.70
2018-04-15T21:07:43.192Z,10.70
2018-04-15T21:10:12.300Z,10.70
2018-04-15T21:12:41.397Z,10.70
2018-04-15T21:15:09.264Z,10.60
2018-04-15T21:17:37.025Z,10.60
2018-04-15T21:20:06.897Z,10.70
2018-04-15T21:22:34.546Z,10.50
2018-04-15T21:25:02.777Z,10.50
2018-04-15T21:27:30.687Z,10.50
2018-04-15T21:29:58.676Z,10.40
2018-04-15T21:32:26.485Z,10.40
2018-04-15T21:34:54.921Z,10.40
2018-04-15T21:37:22.958Z,10.40
2018-04-15T21:39:51.223Z,10.40
2018-04-15T21:42:19.605Z,10.40
2018-04-15T21:44:47.584Z,10.30
2018-04-15T21:47:18.387Z,10.30
2018-04-15T21:49:46.974Z,10.30
2018-04-15T21:52:15.714Z,10.20
2018-04-15T21:54:43.669Z,10.20
2018-04-15T21:57:11.701Z,10.20
2018-04-15T21:59:40.177Z,10.20
2018-04-15T22:02:08.365Z,10.30
2018-04-15T22:04:36.281Z,10.30
2018-04-15T22:07:03.957Z,10.40
2018-04-15T22:09:33.085Z,10.30
2018-04-15T22:12:12.754Z,10.30
2018-04-15T22:14:40.455Z,10.30
2018-04-15T22:17:09.772Z,10.30
2018-04-15T22:19:37.480Z,10.30
2018-04-15T22:22:05.893Z,10.20
2018-04-15T22:24:33.629Z,10.20
2018-04-15T22:27:02.229Z,10.10
2018-04-15T22:29:29.889Z,10.10
2018-04-15T22:31:57.605Z,10.10
2018-04-15T22:34:26.071Z,10.20
2018-04-15T22:36:53.883Z,10.10
2018-04-15T22:39:21.748Z,10.10
2018-04-15T22:41:50.220Z,10.20
2018-04-15T22:44:19.578Z,10.20
2018-04-15T22:46:47.227Z,10.20
2018-04-15T22:49:20.825Z,10.20
2018-04-15T22:51:49.632Z,10.20
2018-04-15T22:54:18.113Z,10.20
2018-04-15T22:56:47.236Z,10.10
2018-04-15T22:59:17.098Z,10.10
2018-04-15T23:01:44.811Z,10.10
2018-04-15T23:04:12.490Z,10.10
2018-04-15T23:06:40.348Z,10.10
2018-04-15T23:09:08.121Z,10.10
2018-04-15T23:11:36.701Z,10.00
2018-04-15T23:14:04.433Z,10.00
2018-04-15T23:16:32.735Z,10.00
2018-04-15T23:19:00.426Z,10.00
2018-04-15T23:21:28.172Z,10.00
2018-04-15T23:23:55.853Z,10.00
2018-04-15T23:26:23.640Z,10.00
2018-04-15T23:28:51.534Z,10.00
2018-04-15T23:31:19.749Z,10.10
2018-04-15T23:33:47.410Z,10.10
2018-04-15T23:36:15.081Z,10.10
2018-04-15T23:38:43.793Z,10.10
2018-04-15T23:41:12.402Z,10.10
2018-04-15T23:43:40.561Z,10.10
2018-04-15T23:46:10.016Z,10.10
2018-04-15T23:48:38.221Z,10.10
2018-04-15T23:51:06.217Z,10.00
2018-04-15T23:53:35.401Z,10.00
2018-04-15T23:56:04.126Z,10.00
2018-04-15T23:58:32.712Z,10.00
